Quad City International Airport Moline US
ICAO: KMLI
IATA: MLI
Category: Large
Scheduled Services: Yes

Elevation: 590 ft
TransAlt. 18000 ft.

Airport Communications:
APP/DEP:118.2
ATIS:121.2
CLNC DEL:123.95
CTAF:119.4
GND:121.9
KANKAKEE RDO:122.6
TWR:119.4
UNICOM:122.95

KMLI Zoom In..

If you have problems with the map follow the link
https://www.worldairports.se/pages/airport.php?
ICAO=KMLI

Runways:

(A) RW 05 length 5015 ft width 150 ft
---- / hdg 48

(B) RW 09 length 10002 ft width 150 ft
ILS 110.50 / hdg 90

(C) RW 13 length 7301 ft width 150 ft
---- / hdg 126

(D) RW 23 length 5015 ft width 150 ft
---- / hdg 228

(E) RW 27 length 10002 ft width 150 ft
ILS 110.50 / hdg 270

(F) RW 31 length 7301 ft width 150 ft
---- / hdg 306

Location; KMLI
Day. 18 / Time. 02.52 Zulu
* Altimeter: 30.09
* Temperature: -02° c. -28.4°f.
* Wind from: 120° Speed 15 kn with Gusts up to 23 kn.
Dewpoint: -04° c.
Visibility: 4 Statute Miles.
Clouds: Overcast 1100 ft.
Conditions: Mist.

KMLI 180252Z 12015G23KT 4SM -FZRA BR OVC011 M02/M04 A3009 RMK AO2 PK WND 13026/0235 UPE18FZRAB18 SLP199 P0004 60010 I1003 I3004 T10171039 58033 $


Wind From 120°
Speed 15 kn.

 
 
jpsmedia worldairports.se 2020   terms of use